sensor_id;sensor_type;location;lat;lon;timestamp;pressure;altitude;pressure_sealevel;temperature;humidity
10310;BME280;5200;43.236;27.986;2023-04-24T00:02:22;99980.72;;;7.77;100.00
10310;BME280;5200;43.236;27.986;2023-04-24T00:04:49;99986.22;;;7.74;100.00
10310;BME280;5200;43.236;27.986;2023-04-24T00:07:17;99982.63;;;7.75;100.00
10310;BME280;5200;43.236;27.986;2023-04-24T00:09:45;99980.25;;;7.72;100.00
10310;BME280;5200;43.236;27.986;2023-04-24T00:12:12;99949.31;;;7.54;100.00
10310;BME280;5200;43.236;27.986;2023-04-24T00:14:39;99971.78;;;7.68;100.00
10310;BME280;5200;43.236;27.986;2023-04-24T00:17:05;99948.13;;;7.47;100.00
10310;BME280;5200;43.236;27.986;2023-04-24T00:19:32;99972.03;;;7.65;100.00
10310;BME280;5200;43.236;27.986;2023-04-24T00:21:59;99961.47;;;7.55;100.00
10310;BME280;5200;43.236;27.986;2023-04-24T00:24:27;99977.75;;;7.59;100.00
10310;BME280;5200;43.236;27.986;2023-04-24T00:26:54;99948.38;;;7.44;100.00
10310;BME280;5200;43.236;27.986;2023-04-24T00:29:21;99978.09;;;7.66;100.00
10310;BME280;5200;43.236;27.986;2023-04-24T00:31:48;99950.00;;;7.45;100.00
10310;BME280;5200;43.236;27.986;2023-04-24T00:34:15;99944.09;;;7.32;100.00
10310;BME280;5200;43.236;27.986;2023-04-24T00:36:41;99962.63;;;7.40;100.00
10310;BME280;5200;43.236;27.986;2023-04-24T00:39:08;99977.75;;;7.48;100.00
10310;BME280;5200;43.236;27.986;2023-04-24T00:41:36;99966.44;;;7.36;100.00
10310;BME280;5200;43.236;27.986;2023-04-24T00:44:03;99976.81;;;7.49;100.00
10310;BME280;5200;43.236;27.986;2023-04-24T00:46:31;99956.31;;;7.43;100.00
10310;BME280;5200;43.236;27.986;2023-04-24T00:48:59;99973.00;;;7.53;100.00
10310;BME280;5200;43.236;27.986;2023-04-24T00:51:26;99959.91;;;7.41;100.00
10310;BME280;5200;43.236;27.986;2023-04-24T00:53:53;99974.75;;;7.52;100.00
10310;BME280;5200;43.236;27.986;2023-04-24T00:56:20;99942.41;;;7.31;100.00
10310;BME280;5200;43.236;27.986;2023-04-24T00:58:48;99977.97;;;7.45;100.00
10310;BME280;5200;43.236;27.986;2023-04-24T01:01:15;99962.88;;;7.37;100.00
10310;BME280;5200;43.236;27.986;2023-04-24T01:03:42;99943.34;;;7.18;100.00
10310;BME280;5200;43.236;27.986;2023-04-24T01:06:09;99968.81;;;7.28;100.00
10310;BME280;5200;43.236;27.986;2023-04-24T01:08:36;99958.31;;;7.16;100.00
10310;BME280;5200;43.236;27.986;2023-04-24T01:11:05;99969.50;;;7.18;100.00
10310;BME280;5200;43.236;27.986;2023-04-24T01:13:32;99948.44;;;7.09;100.00
10310;BME280;5200;43.236;27.986;2023-04-24T01:16:01;99972.84;;;7.20;100.00
10310;BME280;5200;43.236;27.986;2023-04-24T01:18:28;99975.47;;;7.20;100.00
10310;BME280;5200;43.236;27.986;2023-04-24T01:20:58;99978.09;;;7.20;100.00
10310;BME280;5200;43.236;27.986;2023-04-24T01:23:26;99971.41;;;7.16;100.00
10310;BME280;5200;43.236;27.986;2023-04-24T01:25:54;99961.44;;;7.10;100.00
10310;BME280;5200;43.236;27.986;2023-04-24T01:28:21;99972.84;;;7.20;100.00
10310;BME280;5200;43.236;27.986;2023-04-24T01:30:48;99977.00;;;7.23;100.00
10310;BME280;5200;43.236;27.986;2023-04-24T01:33:15;99974.50;;;7.22;100.00
10310;BME280;5200;43.236;27.986;2023-04-24T01:35:43;99963.31;;;7.19;100.00
10310;BME280;5200;43.236;27.986;2023-04-24T01:38:10;99958.81;;;7.22;100.00
10310;BME280;5200;43.236;27.986;2023-04-24T01:40:38;99950.22;;;7.19;100.00
10310;BME280;5200;43.236;27.986;2023-04-24T01:43:05;99931.94;;;7.08;100.00
10310;BME280;5200;43.236;27.986;2023-04-24T01:45:32;99960.00;;;7.29;100.00
10310;BME280;5200;43.236;27.986;2023-04-24T01:48:00;99934.75;;;7.05;100.00
10310;BME280;5200;43.236;27.986;2023-04-24T01:50:27;99965.72;;;7.23;100.00
10310;BME280;5200;43.236;27.986;2023-04-24T01:52:54;99957.03;;;7.11;100.00
10310;BME280;5200;43.236;27.986;2023-04-24T01:55:21;99964.72;;;7.12;100.00
10310;BME280;5200;43.236;27.986;2023-04-24T01:57:49;99950.69;;;7.02;100.00
10310;BME280;5200;43.236;27.986;2023-04-24T02:00:16;99962.13;;;7.01;100.00
10310;BME280;5200;43.236;27.986;2023-04-24T02:02:44;99933.56;;;6.87;100.00
10310;BME280;5200;43.236;27.986;2023-04-24T02:05:11;99957.09;;;6.98;100.00
10310;BME280;5200;43.236;27.986;2023-04-24T02:07:38;99941.63;;;6.84;100.00
10310;BME280;5200;43.236;27.986;2023-04-24T02:10:06;99970.69;;;7.03;100.00
10310;BME280;5200;43.236;27.986;2023-04-24T02:12:32;99961.88;;;7.04;100.00
10310;BME280;5200;43.236;27.986;2023-04-24T02:15:01;99966.03;;;7.07;100.00
10310;BME280;5200;43.236;27.986;2023-04-24T02:17:28;99938.31;;;6.93;100.00
10310;BME280;5200;43.236;27.986;2023-04-24T02:19:56;99935.31;;;6.86;100.00
10310;BME280;5200;43.236;27.986;2023-04-24T02:22:22;99958.78;;;6.99;100.00
10310;BME280;5200;43.236;27.986;2023-04-24T02:24:49;99964.41;;;7.06;100.00
10310;BME280;5200;43.236;27.986;2023-04-24T02:27:16;99957.22;;;7.08;100.00
10310;BME280;5200;43.236;27.986;2023-04-24T02:29:43;99935.31;;;6.86;100.00
10310;BME280;5200;43.236;27.986;2023-04-24T02:32:11;99932.31;;;6.80;100.00
10310;BME280;5200;43.236;27.986;2023-04-24T02:34:38;99952.34;;;6.92;100.00
10310;BME280;5200;43.236;27.986;2023-04-24T02:37:05;99952.78;;;6.86;100.00
10310;BME280;5200;43.236;27.986;2023-04-24T02:39:31;99960.16;;;6.81;100.00
10310;BME280;5200;43.236;27.986;2023-04-24T02:41:58;99926.81;;;6.60;100.00
10310;BME280;5200;43.236;27.986;2023-04-24T02:44:25;99954.44;;;6.75;100.00
10310;BME280;5200;43.236;27.986;2023-04-24T02:46:52;99949.75;;;6.68;100.00
10310;BME280;5200;43.236;27.986;2023-04-24T02:49:20;99950.63;;;6.68;100.00
10310;BME280;5200;43.236;27.986;2023-04-24T02:51:47;99959.63;;;6.64;100.00
10310;BME280;5200;43.236;27.986;2023-04-24T02:54:14;99952.56;;;6.53;100.00
10310;BME280;5200;43.236;27.986;2023-04-24T02:56:41;99935.28;;;6.40;100.00
10310;BME280;5200;43.236;27.986;2023-04-24T02:59:07;99954.34;;;6.53;100.00
10310;BME280;5200;43.236;27.986;2023-04-24T03:01:35;99956.97;;;6.53;100.00
10310;BME280;5200;43.236;27.986;2023-04-24T03:04:02;99954.25;;;6.54;100.00
10310;BME280;5200;43.236;27.986;2023-04-24T03:06:30;99936.16;;;6.40;100.00
10310;BME280;5200;43.236;27.986;2023-04-24T03:08:58;99963.53;;;6.59;100.00
10310;BME280;5200;43.236;27.986;2023-04-24T03:11:25;99957.69;;;6.55;100.00
10310;BME280;5200;43.236;27.986;2023-04-24T03:13:51;99938.63;;;6.42;100.00
10310;BME280;5200;43.236;27.986;2023-04-24T03:16:18;99924.13;;;6.38;100.00
10310;BME280;5200;43.236;27.986;2023-04-24T03:18:45;99944.63;;;6.55;100.00
10310;BME280;5200;43.236;27.986;2023-04-24T03:21:12;99948.16;;;6.78;100.00
10310;BME280;5200;43.236;27.986;2023-04-24T03:23:40;99929.75;;;6.91;100.00
10310;BME280;5200;43.236;27.986;2023-04-24T03:26:07;99936.69;;;7.14;100.00
10310;BME280;5200;43.236;27.986;2023-04-24T03:28:34;99934.66;;;7.40;100.00
10310;BME280;5200;43.236;27.986;2023-04-24T03:31:00;99928.19;;;7.90;100.00
10310;BME280;5200;43.236;27.986;2023-04-24T03:33:27;99939.50;;;8.34;100.00
10310;BME280;5200;43.236;27.986;2023-04-24T03:35:54;99955.78;;;8.81;100.00
10310;BME280;5200;43.236;27.986;2023-04-24T03:38:21;99954.19;;;9.10;100.00
10310;BME280;5200;43.236;27.986;2023-04-24T03:40:49;99961.59;;;9.57;100.00
10310;BME280;5200;43.236;27.986;2023-04-24T03:43:16;99961.88;;;10.04;100.00
10310;BME280;5200;43.236;27.986;2023-04-24T03:45:43;99926.50;;;10.28;100.00
10310;BME280;5200;43.236;27.986;2023-04-24T03:48:09;99955.59;;;10.75;100.00
10310;BME280;5200;43.236;27.986;2023-04-24T03:50:36;99936.69;;;10.99;100.00
10310;BME280;5200;43.236;27.986;2023-04-24T03:53:03;99955.69;;;11.40;100.00
10310;BME280;5200;43.236;27.986;2023-04-24T03:55:30;99961.41;;;11.73;100.00
10310;BME280;5200;43.236;27.986;2023-04-24T03:57:58;99971.53;;;12.05;100.00
10310;BME280;5200;43.236;27.986;2023-04-24T04:00:25;99951.88;;;12.17;100.00
10310;BME280;5200;43.236;27.986;2023-04-24T04:02:52;99939.06;;;12.40;100.00
10310;BME280;5200;43.236;27.986;2023-04-24T04:05:20;99962.97;;;12.75;100.00
10310;BME280;5200;43.236;27.986;2023-04-24T04:07:47;99970.06;;;13.00;100.00
10310;BME280;5200;43.236;27.986;2023-04-24T04:10:13;99948.69;;;13.11;100.00
10310;BME280;5200;43.236;27.986;2023-04-24T04:12:40;99941.31;;;13.41;100.00
10310;BME280;5200;43.236;27.986;2023-04-24T04:15:09;99964.78;;;13.87;100.00
10310;BME280;5200;43.236;27.986;2023-04-24T04:17:36;99968.22;;;14.22;100.00
10310;BME280;5200;43.236;27.986;2023-04-24T04:20:05;99941.25;;;14.34;100.00
10310;BME280;5200;43.236;27.986;2023-04-24T04:22:34;99961.19;;;14.63;100.00
10310;BME280;5200;43.236;27.986;2023-04-24T04:25:01;99965.16;;;14.75;100.00
10310;BME280;5200;43.236;27.986;2023-04-24T04:27:28;99963.47;;;14.91;100.00
10310;BME280;5200;43.236;27.986;2023-04-24T04:29:57;99958.84;;;15.01;100.00
10310;BME280;5200;43.236;27.986;2023-04-24T04:32:25;99939.97;;;15.12;100.00
10310;BME280;5200;43.236;27.986;2023-04-24T04:34:52;99961.09;;;15.45;100.00
10310;BME280;5200;43.236;27.986;2023-04-24T04:37:19;99961.00;;;15.61;100.00
10310;BME280;5200;43.236;27.986;2023-04-24T04:39:46;99968.13;;;15.69;98.94
10310;BME280;5200;43.236;27.986;2023-04-24T04:42:13;99961.69;;;15.72;99.52
10310;BME280;5200;43.236;27.986;2023-04-24T04:44:40;99970.91;;;15.84;99.60
10310;BME280;5200;43.236;27.986;2023-04-24T04:47:08;99959.63;;;15.90;98.27
10310;BME280;5200;43.236;27.986;2023-04-24T04:49:37;99963.47;;;16.11;97.66
10310;BME280;5200;43.236;27.986;2023-04-24T04:52:04;99963.47;;;16.11;95.95
10310;BME280;5200;43.236;27.986;2023-04-24T04:54:31;99957.22;;;16.03;95.54
10310;BME280;5200;43.236;27.986;2023-04-24T04:56:58;99965.28;;;16.18;94.73
10310;BME280;5200;43.236;27.986;2023-04-24T04:59:25;99971.31;;;16.35;89.05
10310;BME280;5200;43.236;27.986;2023-04-24T05:01:52;99965.78;;;16.14;83.18
10310;BME280;5200;43.236;27.986;2023-04-24T05:04:19;99961.84;;;16.10;82.63
10310;BME280;5200;43.236;27.986;2023-04-24T05:06:47;99974.41;;;16.16;82.25
10310;BME280;5200;43.236;27.986;2023-04-24T05:09:16;99962.44;;;16.20;81.18
10310;BME280;5200;43.236;27.986;2023-04-24T05:11:43;99972.75;;;16.15;80.07
10310;BME280;5200;43.236;27.986;2023-04-24T05:14:10;99958.91;;;15.96;80.28
10310;BME280;5200;43.236;27.986;2023-04-24T05:16:37;99938.63;;;15.72;81.15
10310;BME280;5200;43.236;27.986;2023-04-24T05:19:04;99941.78;;;15.76;80.97
10310;BME280;5200;43.236;27.986;2023-04-24T05:21:31;99959.44;;;15.92;80.73
10310;BME280;5200;43.236;27.986;2023-04-24T05:24:00;99965.88;;;15.97;80.42
10310;BME280;5200;43.236;27.986;2023-04-24T05:26:26;99963.81;;;16.08;80.94
10310;BME280;5200;43.236;27.986;2023-04-24T05:28:53;99946.91;;;16.09;79.67
10310;BME280;5200;43.236;27.986;2023-04-24T05:31:20;99955.59;;;16.25;78.40
10310;BME280;5200;43.236;27.986;2023-04-24T05:33:47;99959.13;;;16.41;78.55
10310;BME280;5200;43.236;27.986;2023-04-24T05:36:14;99951.53;;;16.61;78.42
10310;BME280;5200;43.236;27.986;2023-04-24T05:38:40;99963.22;;;16.75;76.64
10310;BME280;5200;43.236;27.986;2023-04-24T05:41:09;99961.69;;;16.80;76.95
10310;BME280;5200;43.236;27.986;2023-04-24T05:43:35;99947.63;;;16.95;74.97
10310;BME280;5200;43.236;27.986;2023-04-24T05:46:02;99956.34;;;17.18;74.49
10310;BME280;5200;43.236;27.986;2023-04-24T05:48:29;99955.72;;;17.16;72.99
10310;BME280;5200;43.236;27.986;2023-04-24T05:50:56;99961.31;;;17.21;72.31
10310;BME280;5200;43.236;27.986;2023-04-24T05:53:23;99938.19;;;16.92;71.26
10310;BME280;5200;43.236;27.986;2023-04-24T05:55:49;99963.41;;;16.96;72.49
10310;BME280;5200;43.236;27.986;2023-04-24T05:58:18;99937.53;;;17.05;72.60
10310;BME280;5200;43.236;27.986;2023-04-24T06:00:44;99963.06;;;17.29;72.72
10310;BME280;5200;43.236;27.986;2023-04-24T06:03:12;99932.59;;;17.02;71.20
10310;BME280;5200;43.236;27.986;2023-04-24T06:05:39;99954.22;;;16.99;72.31
10310;BME280;5200;43.236;27.986;2023-04-24T06:08:05;99917.84;;;16.76;72.96
10310;BME280;5200;43.236;27.986;2023-04-24T06:10:32;99962.88;;;17.16;72.84
10310;BME280;5200;43.236;27.986;2023-04-24T06:12:59;99970.19;;;17.28;71.29
10310;BME280;5200;43.236;27.986;2023-04-24T06:15:29;99960.97;;;17.39;71.78
10310;BME280;5200;43.236;27.986;2023-04-24T06:17:56;99953.91;;;17.46;71.24
10310;BME280;5200;43.236;27.986;2023-04-24T06:20:24;99953.16;;;17.67;69.39
10310;BME280;5200;43.236;27.986;2023-04-24T06:22:51;99966.16;;;17.77;66.78
10310;BME280;5200;43.236;27.986;2023-04-24T06:25:18;99952.97;;;17.69;67.62
10310;BME280;5200;43.236;27.986;2023-04-24T06:27:47;99974.81;;;17.64;68.91
10310;BME280;5200;43.236;27.986;2023-04-24T06:30:16;99961.13;;;17.67;67.63
10310;BME280;5200;43.236;27.986;2023-04-24T06:32:44;99953.88;;;17.61;67.95
10310;BME280;5200;43.236;27.986;2023-04-24T06:35:11;99961.88;;;17.76;68.59
10310;BME280;5200;43.236;27.986;2023-04-24T06:37:39;99926.75;;;17.51;69.02
10310;BME280;5200;43.236;27.986;2023-04-24T06:40:06;99946.75;;;17.47;70.09
10310;BME280;5200;43.236;27.986;2023-04-24T06:42:33;99967.09;;;17.69;70.87
10310;BME280;5200;43.236;27.986;2023-04-24T06:45:01;99947.19;;;17.65;70.71
10310;BME280;5200;43.236;27.986;2023-04-24T06:47:29;99960.47;;;17.80;70.55
10310;BME280;5200;43.236;27.986;2023-04-24T06:49:57;99973.63;;;17.67;71.69
10310;BME280;5200;43.236;27.986;2023-04-24T06:52:24;99968.59;;;17.57;71.08
10310;BME280;5200;43.236;27.986;2023-04-24T06:54:50;99965.81;;;17.65;70.12
10310;BME280;5200;43.236;27.986;2023-04-24T06:57:17;99977.22;;;17.59;69.66
10310;BME280;5200;43.236;27.986;2023-04-24T06:59:44;99950.22;;;17.32;70.61
10310;BME280;5200;43.236;27.986;2023-04-24T07:02:11;99970.03;;;17.45;69.32
10310;BME280;5200;43.236;27.986;2023-04-24T07:04:38;99946.38;;;17.20;68.68
10310;BME280;5200;43.236;27.986;2023-04-24T07:07:06;99968.19;;;17.30;70.59
10310;BME280;5200;43.236;27.986;2023-04-24T07:09:34;99961.69;;;17.33;69.60
10310;BME280;5200;43.236;27.986;2023-04-24T07:12:04;99984.63;;;17.34;70.03
10310;BME280;5200;43.236;27.986;2023-04-24T07:14:31;99984.53;;;17.27;70.10
10310;BME280;5200;43.236;27.986;2023-04-24T07:16:58;99984.25;;;17.22;71.14
10310;BME280;5200;43.236;27.986;2023-04-24T07:19:24;99983.97;;;17.17;71.61
10310;BME280;5200;43.236;27.986;2023-04-24T07:21:51;99988.63;;;17.00;73.67
10310;BME280;5200;43.236;27.986;2023-04-24T07:24:20;99991.16;;;16.94;74.75
10310;BME280;5200;43.236;27.986;2023-04-24T07:26:47;99998.00;;;16.88;76.33
10310;BME280;5200;43.236;27.986;2023-04-24T07:29:14;99993.06;;;17.00;76.27
10310;BME280;5200;43.236;27.986;2023-04-24T07:31:41;99995.09;;;16.98;77.77
10310;BME280;5200;43.236;27.986;2023-04-24T07:34:07;99990.13;;;16.95;78.99
10310;BME280;5200;43.236;27.986;2023-04-24T07:36:35;99966.31;;;16.86;78.89
10310;BME280;5200;43.236;27.986;2023-04-24T07:39:03;99974.97;;;16.80;78.67
10310;BME280;5200;43.236;27.986;2023-04-24T07:41:32;99992.97;;;16.93;77.91
10310;BME280;5200;43.236;27.986;2023-04-24T07:43:59;99988.28;;;16.80;78.23
10310;BME280;5200;43.236;27.986;2023-04-24T07:46:26;99999.94;;;16.71;80.29
10310;BME280;5200;43.236;27.986;2023-04-24T07:48:55;100000.88;;;16.78;80.02
10310;BME280;5200;43.236;27.986;2023-04-24T07:51:22;99969.72;;;16.72;80.43
10310;BME280;5200;43.236;27.986;2023-04-24T07:53:48;99979.13;;;16.98;78.16
10310;BME280;5200;43.236;27.986;2023-04-24T07:56:16;99980.72;;;17.07;78.39
10310;BME280;5200;43.236;27.986;2023-04-24T07:58:44;100010.56;;;17.32;76.57
10310;BME280;5200;43.236;27.986;2023-04-24T08:01:10;100011.66;;;17.38;74.93
10310;BME280;5200;43.236;27.986;2023-04-24T08:03:37;100010.72;;;17.30;74.90
10310;BME280;5200;43.236;27.986;2023-04-24T08:06:05;100008.81;;;17.24;76.06
10310;BME280;5200;43.236;27.986;2023-04-24T08:08:31;100017.63;;;17.25;76.33
10310;BME280;5200;43.236;27.986;2023-04-24T08:10:59;100009.81;;;17.23;75.82
10310;BME280;5200;43.236;27.986;2023-04-24T08:13:26;100014.69;;;17.20;76.68
10310;BME280;5200;43.236;27.986;2023-04-24T08:15:54;99995.69;;;17.08;76.63
10310;BME280;5200;43.236;27.986;2023-04-24T08:18:21;100006.16;;;17.24;77.09
10310;BME280;5200;43.236;27.986;2023-04-24T08:20:48;100014.97;;;17.40;76.93
10310;BME280;5200;43.236;27.986;2023-04-24T08:23:15;100009.75;;;17.46;75.55
10310;BME280;5200;43.236;27.986;2023-04-24T08:25:42;100009.09;;;17.44;76.64
10310;BME280;5200;43.236;27.986;2023-04-24T08:28:08;100011.88;;;17.51;76.61
10310;BME280;5200;43.236;27.986;2023-04-24T08:30:36;100009.38;;;17.49;75.46
10310;BME280;5200;43.236;27.986;2023-04-24T08:33:05;100012.31;;;17.40;75.89
10310;BME280;5200;43.236;27.986;2023-04-24T08:35:32;100010.19;;;17.20;77.94
10310;BME280;5200;43.236;27.986;2023-04-24T08:37:59;100000.84;;;17.24;78.45
10310;BME280;5200;43.236;27.986;2023-04-24T08:40:28;99988.53;;;17.23;77.65
10310;BME280;5200;43.236;27.986;2023-04-24T08:42:55;100003.72;;;17.00;79.38
10310;BME280;5200;43.236;27.986;2023-04-24T08:45:23;100002.84;;;16.84;80.35
10310;BME280;5200;43.236;27.986;2023-04-24T08:47:50;99977.50;;;16.51;81.54
10310;BME280;5200;43.236;27.986;2023-04-24T08:50:20;100012.34;;;16.79;80.35
10310;BME280;5200;43.236;27.986;2023-04-24T08:52:49;100000.53;;;16.81;79.89
10310;BME280;5200;43.236;27.986;2023-04-24T08:55:18;100001.34;;;17.05;79.90
10310;BME280;5200;43.236;27.986;2023-04-24T08:57:50;99999.97;;;17.09;76.76
10310;BME280;5200;43.236;27.986;2023-04-24T09:00:18;99980.31;;;16.95;76.72
10310;BME280;5200;43.236;27.986;2023-04-24T09:02:47;100003.22;;;17.19;76.73
10310;BME280;5200;43.236;27.986;2023-04-24T09:05:16;100001.78;;;17.31;77.86
10310;BME280;5200;43.236;27.986;2023-04-24T09:07:49;99985.34;;;17.28;77.54
10310;BME280;5200;43.236;27.986;2023-04-24T09:10:20;99994.88;;;17.37;74.26
10310;BME280;5200;43.236;27.986;2023-04-24T09:12:47;99991.22;;;17.38;74.87
10310;BME280;5200;43.236;27.986;2023-04-24T09:15:16;99957.66;;;17.22;75.40
10310;BME280;5200;43.236;27.986;2023-04-24T09:17:43;99991.41;;;17.37;76.12
10310;BME280;5200;43.236;27.986;2023-04-24T09:20:10;99983.44;;;17.51;76.53
10310;BME280;5200;43.236;27.986;2023-04-24T09:22:37;99982.34;;;17.75;76.26
10310;BME280;5200;43.236;27.986;2023-04-24T09:25:07;99975.19;;;17.91;73.01
10310;BME280;5200;43.236;27.986;2023-04-24T09:27:35;99990.22;;;17.99;71.95
10310;BME280;5200;43.236;27.986;2023-04-24T09:30:02;99993.72;;;17.99;71.69
10310;BME280;5200;43.236;27.986;2023-04-24T09:32:29;100000.72;;;17.85;71.93
10310;BME280;5200;43.236;27.986;2023-04-24T09:35:11;99994.69;;;17.68;73.33
10310;BME280;5200;43.236;27.986;2023-04-24T09:37:39;99991.97;;;17.62;72.40
10310;BME280;5200;43.236;27.986;2023-04-24T09:40:15;99997.47;;;17.45;74.00
10310;BME280;5200;43.236;27.986;2023-04-24T09:42:51;99999.66;;;17.27;72.90
10310;BME280;5200;43.236;27.986;2023-04-24T09:45:22;100006.38;;;17.00;73.35
10310;BME280;5200;43.236;27.986;2023-04-24T09:47:52;99996.88;;;16.82;75.60
10310;BME280;5200;43.236;27.986;2023-04-24T09:50:19;99994.22;;;16.82;76.99
10310;BME280;5200;43.236;27.986;2023-04-24T09:52:47;99992.59;;;16.73;76.38
10310;BME280;5200;43.236;27.986;2023-04-24T09:55:23;99987.53;;;16.63;77.43
10310;BME280;5200;43.236;27.986;2023-04-24T09:57:52;99992.03;;;16.63;78.72
10310;BME280;5200;43.236;27.986;2023-04-24T10:00:23;99970.84;;;16.55;79.54
10310;BME280;5200;43.236;27.986;2023-04-24T10:02:54;99959.91;;;16.49;79.05
10310;BME280;5200;43.236;27.986;2023-04-24T10:05:23;99938.09;;;16.39;78.73
10310;BME280;5200;43.236;27.986;2023-04-24T10:07:51;99973.97;;;16.81;79.86
10310;BME280;5200;43.236;27.986;2023-04-24T10:10:18;99952.72;;;16.81;80.06
10310;BME280;5200;43.236;27.986;2023-04-24T10:12:46;99974.22;;;17.09;79.79
10310;BME280;5200;43.236;27.986;2023-04-24T10:15:15;99979.47;;;17.18;78.65
10310;BME280;5200;43.236;27.986;2023-04-24T10:17:47;99968.66;;;17.19;78.68
10310;BME280;5200;43.236;27.986;2023-04-24T10:20:18;99978.66;;;17.32;78.47
10310;BME280;5200;43.236;27.986;2023-04-24T10:22:48;99964.97;;;17.35;76.95
10310;BME280;5200;43.236;27.986;2023-04-24T10:25:17;99980.50;;;17.31;76.76
10310;BME280;5200;43.236;27.986;2023-04-24T10:27:47;99983.22;;;17.23;77.91
10310;BME280;5200;43.236;27.986;2023-04-24T10:30:15;99968.94;;;17.24;77.34
10310;BME280;5200;43.236;27.986;2023-04-24T10:32:42;99947.41;;;17.19;76.85
10310;BME280;5200;43.236;27.986;2023-04-24T10:35:09;99965.09;;;17.27;75.22
10310;BME280;5200;43.236;27.986;2023-04-24T10:37:38;99964.00;;;17.51;75.75
10310;BME280;5200;43.236;27.986;2023-04-24T10:40:08;99949.13;;;17.42;74.90
10310;BME280;5200;43.236;27.986;2023-04-24T10:42:35;99962.69;;;17.47;74.53
10310;BME280;5200;43.236;27.986;2023-04-24T10:45:16;99957.66;;;17.22;74.30
10310;BME280;5200;43.236;27.986;2023-04-24T10:47:51;99959.19;;;17.02;74.70
10310;BME280;5200;43.236;27.986;2023-04-24T10:50:18;99973.94;;;17.04;77.42
10310;BME280;5200;43.236;27.986;2023-04-24T10:52:45;99950.28;;;16.95;76.87
10310;BME280;5200;43.236;27.986;2023-04-24T10:55:13;99942.09;;;16.81;76.87
10310;BME280;5200;43.236;27.986;2023-04-24T10:58:01;99950.91;;;16.74;77.34
10310;BME280;5200;43.236;27.986;2023-04-24T11:00:30;99975.84;;;16.49;79.23
10310;BME280;5200;43.236;27.986;2023-04-24T11:02:57;99958.94;;;16.19;80.71
10310;BME280;5200;43.236;27.986;2023-04-24T11:05:58;99960.09;;;15.94;84.39
10310;BME280;5200;43.236;27.986;2023-04-24T11:08:27;99955.38;;;15.64;86.38
10310;BME280;5200;43.236;27.986;2023-04-24T11:11:03;99916.38;;;15.34;86.55
10310;BME280;5200;43.236;27.986;2023-04-24T11:14:02;99952.41;;;15.59;88.60
10310;BME280;5200;43.236;27.986;2023-04-24T11:16:32;99929.53;;;15.58;89.41
10310;BME280;5200;43.236;27.986;2023-04-24T11:19:04;99911.50;;;15.54;88.33
10310;BME280;5200;43.236;27.986;2023-04-24T11:21:32;99944.63;;;15.58;87.84
10310;BME280;5200;43.236;27.986;2023-04-24T11:24:26;99928.97;;;15.32;90.39
10310;BME280;5200;43.236;27.986;2023-04-24T11:26:55;99933.34;;;15.08;93.88
10310;BME280;5200;43.236;27.986;2023-04-24T11:29:22;99939.47;;;15.09;95.74
10310;BME280;5200;43.236;27.986;2023-04-24T11:31:51;99917.13;;;15.03;97.68
10310;BME280;5200;43.236;27.986;2023-04-24T11:34:18;99925.69;;;15.21;96.71
10310;BME280;5200;43.236;27.986;2023-04-24T11:36:46;99905.22;;;14.99;98.07
10310;BME280;5200;43.236;27.986;2023-04-24T11:39:13;99897.25;;;14.99;96.05
10310;BME280;5200;43.236;27.986;2023-04-24T11:41:40;99935.97;;;15.16;92.77
10310;BME280;5200;43.236;27.986;2023-04-24T11:44:08;99926.34;;;15.23;92.72
10310;BME280;5200;43.236;27.986;2023-04-24T11:46:35;99907.34;;;15.04;91.63
10310;BME280;5200;43.236;27.986;2023-04-24T11:49:04;99924.19;;;15.19;92.86
10310;BME280;5200;43.236;27.986;2023-04-24T11:51:31;99935.09;;;15.32;94.49
10310;BME280;5200;43.236;27.986;2023-04-24T11:53:59;99904.88;;;14.94;92.43
10310;BME280;5200;43.236;27.986;2023-04-24T11:56:25;99878.44;;;14.61;94.44
10310;BME280;5200;43.236;27.986;2023-04-24T11:58:52;99915.81;;;14.74;97.31
10310;BME280;5200;43.236;27.986;2023-04-24T12:01:20;99914.84;;;14.75;97.59
10310;BME280;5200;43.236;27.986;2023-04-24T12:03:48;99914.19;;;14.82;96.60
10310;BME280;5200;43.236;27.986;2023-04-24T12:06:17;99915.97;;;14.89;98.18
10310;BME280;5200;43.236;27.986;2023-04-24T12:08:48;99893.97;;;14.89;97.15
10310;BME280;5200;43.236;27.986;2023-04-24T12:11:16;99910.00;;;15.04;97.92
10310;BME280;5200;43.236;27.986;2023-04-24T12:13:46;99902.41;;;15.00;95.19
10310;BME280;5200;43.236;27.986;2023-04-24T12:16:12;99896.41;;;15.07;95.55
10310;BME280;5200;43.236;27.986;2023-04-24T12:18:43;99882.38;;;14.90;96.33
10310;BME280;5200;43.236;27.986;2023-04-24T12:21:20;99875.78;;;14.69;96.01
10310;BME280;5200;43.236;27.986;2023-04-24T12:23:47;99872.13;;;14.21;98.39
10310;BME280;5200;43.236;27.986;2023-04-24T12:26:16;99864.19;;;14.05;100.00
10310;BME280;5200;43.236;27.986;2023-04-24T12:28:46;99876.06;;;14.01;100.00
10310;BME280;5200;43.236;27.986;2023-04-24T12:31:13;99897.56;;;13.98;100.00
10310;BME280;5200;43.236;27.986;2023-04-24T12:33:40;99879.34;;;13.94;100.00
10310;BME280;5200;43.236;27.986;2023-04-24T12:36:10;99888.47;;;14.00;100.00
10310;BME280;5200;43.236;27.986;2023-04-24T12:38:39;99884.78;;;13.77;100.00
10310;BME280;5200;43.236;27.986;2023-04-24T12:41:13;99870.66;;;13.51;100.00
10310;BME280;5200;43.236;27.986;2023-04-24T12:43:51;99864.81;;;13.31;100.00
10310;BME280;5200;43.236;27.986;2023-04-24T12:46:18;99874.22;;;13.34;100.00
10310;BME280;5200;43.236;27.986;2023-04-24T12:48:44;99879.19;;;13.37;100.00
10310;BME280;5200;43.236;27.986;2023-04-24T12:51:11;99823.19;;;12.99;100.00
10310;BME280;5200;43.236;27.986;2023-04-24T12:53:39;99873.47;;;13.24;100.00
10310;BME280;5200;43.236;27.986;2023-04-24T12:56:06;99865.94;;;13.29;100.00
10310;BME280;5200;43.236;27.986;2023-04-24T12:58:33;99863.66;;;13.08;100.00
10310;BME280;5200;43.236;27.986;2023-04-24T13:01:00;99842.94;;;12.95;100.00
10310;BME280;5200;43.236;27.986;2023-04-24T13:03:27;99847.53;;;12.85;100.00